aviador You're here:

BKPR Decoded Metar

PRISHTINA in SERBIA
Report Time2018-05-28 09:30:00
UTC Time2018-05-28 09:45:25
Flight Rules vfr VFR
WindVRB at 03 kt
Visibility9999 m
Phenomena:N/A
Clouds:Few 040 Hf
Expected CloudBase > 3,600 ft AGL from Temp-Dew spread
CeilingNone
Temp23°C (ISA +12)
Dew Point14°C (57% RH)
QNH1021 hPa
Density Alt3,202 ft
Elevation1,890 ft
Report Wrong Elevation
Raw Report
BKPR 280930Z VRB03KT 9999 FEW040 23/14 Q1021 NOSIG=

Extra information for BKPR:More info

Metar Taf Metar & Taf Last 4 Metars F.Rules Stats Wind Profile Meteogram Temp Stats Airport Information Weather charts Add Link Nearby VenuesMetar ALERT Operation Metar Decoded Social comments